createdAt,value
2022-08-09T00:01:54.131Z,18.17
2022-08-09T00:05:02.947Z,18.17
2022-08-09T00:08:31.824Z,18.17
2022-08-09T00:12:03.920Z,18.08
2022-08-09T00:15:06.771Z,18.12
2022-08-09T00:18:11.478Z,18.24
2022-08-09T00:21:15.260Z,18.15
2022-08-09T00:24:19.782Z,18.17
2022-08-09T00:27:22.585Z,18.17
2022-08-09T00:30:27.016Z,18.17
2022-08-09T00:33:32.679Z,18.19
2022-08-09T00:36:52.240Z,18.22
2022-08-09T00:40:12.955Z,18.27
2022-08-09T00:44:13.996Z,18.23
2022-08-09T00:46:56.340Z,18.20
2022-08-09T00:50:04.809Z,18.29
2022-08-09T00:53:10.127Z,18.19
2022-08-09T00:56:14.782Z,18.12
2022-08-09T00:59:31.646Z,18.06
2022-08-09T01:02:50.234Z,18.11
2022-08-09T01:06:22.229Z,18.15
2022-08-09T01:09:44.303Z,18.17
2022-08-09T01:13:04.611Z,18.08
2022-08-09T01:16:12.916Z,18.07
2022-08-09T01:19:43.044Z,18.13
2022-08-09T01:24:02.478Z,18.16
2022-08-09T01:26:57.656Z,18.01
2022-08-09T01:30:08.425Z,18.13
2022-08-09T01:33:38.538Z,18.02
2022-08-09T01:36:43.293Z,17.92
2022-08-09T01:39:50.668Z,17.88
2022-08-09T01:42:57.029Z,17.82
2022-08-09T01:46:00.735Z,17.79
2022-08-09T01:49:24.103Z,17.96
2022-08-09T01:52:27.782Z,17.76
2022-08-09T01:55:35.722Z,17.73
2022-08-09T01:58:43.751Z,17.70
2022-08-09T02:01:58.497Z,17.72
2022-08-09T02:05:15.901Z,17.72
2022-08-09T02:08:40.609Z,17.74
2022-08-09T02:11:45.234Z,17.76
2022-08-09T02:14:52.060Z,17.74
2022-08-09T02:18:01.445Z,17.70
2022-08-09T02:21:22.090Z,17.72
2022-08-09T02:24:35.367Z,17.80
2022-08-09T02:27:57.835Z,17.77
2022-08-09T02:31:31.440Z,17.78
2022-08-09T02:34:51.815Z,17.72
2022-08-09T02:38:00.597Z,17.67
2022-08-09T02:41:11.723Z,17.75
2022-08-09T02:44:29.040Z,17.68
2022-08-09T02:47:58.121Z,17.64
2022-08-09T02:51:02.582Z,17.67
2022-08-09T02:54:07.166Z,17.51
2022-08-09T02:57:13.671Z,17.43
2022-08-09T03:00:27.085Z,17.39
2022-08-09T03:04:12.928Z,17.33
2022-08-09T03:06:56.358Z,17.25
2022-08-09T03:10:04.020Z,17.32
2022-08-09T03:13:08.316Z,17.22
2022-08-09T03:16:20.671Z,17.14
2022-08-09T03:19:59.278Z,17.16
2022-08-09T03:22:56.818Z,17.10
2022-08-09T03:26:05.093Z,17.03
2022-08-09T03:29:09.632Z,16.99
2022-08-09T03:32:17.357Z,17.00
2022-08-09T03:35:44.370Z,17.05
2022-08-09T03:38:46.094Z,17.03
2022-08-09T03:41:49.100Z,17.02
2022-08-09T03:45:09.004Z,17.01
2022-08-09T03:48:11.916Z,17.08
2022-08-09T03:51:56.613Z,17.00
2022-08-09T03:54:48.889Z,16.97
2022-08-09T03:58:03.327Z,16.97
2022-08-09T04:01:13.284Z,16.89
2022-08-09T04:04:17.477Z,16.88
2022-08-09T04:07:20.561Z,16.85
2022-08-09T04:10:29.027Z,16.85
2022-08-09T04:14:36.570Z,16.95
2022-08-09T04:16:57.426Z,16.98
2022-08-09T04:20:02.644Z,17.10
2022-08-09T04:23:10.007Z,17.23
2022-08-09T04:26:19.637Z,17.32
2022-08-09T04:29:26.248Z,17.32
2022-08-09T04:32:37.008Z,17.42
2022-08-09T04:35:42.475Z,17.52
2022-08-09T04:38:45.198Z,17.68
2022-08-09T04:41:48.146Z,17.71
2022-08-09T04:44:50.766Z,17.80
2022-08-09T04:48:01.204Z,17.85
2022-08-09T04:51:05.706Z,18.02
2022-08-09T04:54:08.654Z,18.09
2022-08-09T04:57:12.941Z,18.03
2022-08-09T05:00:16.991Z,18.05
2022-08-09T05:03:42.655Z,18.18
2022-08-09T05:06:44.200Z,18.43
2022-08-09T05:09:49.912Z,18.35
2022-08-09T05:12:53.188Z,18.35
2022-08-09T05:15:56.510Z,18.49
2022-08-09T05:19:00.635Z,18.64
2022-08-09T05:22:05.436Z,18.81
2022-08-09T05:25:32.649Z,18.97
2022-08-09T05:28:35.465Z,19.04
2022-08-09T05:31:46.397Z,19.06
2022-08-09T05:34:51.783Z,19.10
2022-08-09T05:37:55.836Z,19.27
2022-08-09T05:40:58.787Z,19.33
2022-08-09T05:44:01.639Z,19.51
2022-08-09T05:47:05.572Z,19.70
2022-08-09T05:50:30.611Z,19.78
2022-08-09T05:53:34.016Z,19.83
2022-08-09T05:56:39.035Z,19.87
2022-08-09T05:59:58.183Z,20.06
2022-08-09T06:03:03.634Z,20.20
2022-08-09T06:06:06.881Z,20.35
2022-08-09T06:09:40.659Z,20.49
2022-08-09T06:12:33.083Z,20.44
2022-08-09T06:15:36.608Z,20.63
2022-08-09T06:18:39.441Z,20.97
2022-08-09T06:21:51.500Z,21.16
2022-08-09T06:25:01.109Z,21.32
2022-08-09T06:28:04.039Z,21.06
2022-08-09T06:31:08.070Z,21.32
2022-08-09T06:34:10.595Z,21.45
2022-08-09T06:37:13.451Z,21.66
2022-08-09T06:40:21.738Z,21.71
2022-08-09T06:43:27.227Z,21.87
2022-08-09T06:46:40.564Z,22.10
2022-08-09T06:50:11.998Z,22.36
2022-08-09T06:53:06.989Z,22.53
2022-08-09T06:56:09.787Z,22.73
2022-08-09T07:00:49.220Z,23.08
2022-08-09T07:02:36.720Z,23.33
2022-08-09T07:06:03.111Z,23.45
2022-08-09T07:09:04.580Z,23.11
2022-08-09T07:12:07.211Z,23.65
2022-08-09T07:16:36.090Z,23.67
2022-08-09T07:18:39.301Z,24.20
2022-08-09T07:21:43.403Z,24.99
2022-08-09T07:24:58.768Z,25.13
2022-08-09T07:28:04.302Z,24.60
2022-08-09T07:31:07.086Z,25.13
2022-08-09T07:34:10.013Z,25.44
2022-08-09T07:37:23.458Z,27.00
2022-08-09T07:40:37.217Z,26.92
2022-08-09T07:43:56.264Z,28.21
2022-08-09T07:46:59.549Z,28.60
2022-08-09T07:50:08.619Z,29.78
2022-08-09T07:53:12.515Z,30.35
2022-08-09T07:56:27.143Z,30.77
2022-08-09T07:59:34.439Z,28.19
2022-08-09T08:02:48.760Z,29.17
2022-08-09T08:05:58.219Z,28.18
2022-08-09T08:09:07.507Z,29.34
2022-08-09T08:12:36.468Z,29.68
2022-08-09T08:15:37.666Z,29.99
2022-08-09T08:18:43.237Z,30.45
2022-08-09T08:21:52.564Z,29.22
2022-08-09T08:24:57.451Z,30.42
2022-08-09T08:28:00.160Z,30.19
2022-08-09T08:31:14.243Z,31.30
2022-08-09T08:34:25.432Z,30.07
2022-08-09T08:37:41.913Z,30.82
2022-08-09T08:40:55.611Z,30.37
2022-08-09T08:44:02.542Z,31.70
2022-08-09T08:47:12.349Z,29.21
2022-08-09T08:50:18.211Z,30.02
2022-08-09T08:53:22.331Z,31.89
2022-08-09T08:56:28.192Z,29.84
2022-08-09T08:59:46.815Z,30.20
2022-08-09T09:02:53.552Z,32.36
2022-08-09T09:06:05.038Z,33.33
2022-08-09T09:09:41.209Z,34.62
2022-08-09T09:12:35.415Z,32.97
2022-08-09T09:15:38.857Z,31.98
2022-08-09T09:18:48.151Z,33.30
2022-08-09T09:22:11.300Z,32.33
2022-08-09T09:26:00.963Z,32.58
2022-08-09T09:29:03.965Z,32.75
2022-08-09T09:32:20.237Z,31.85
2022-08-09T09:36:02.577Z,34.33
2022-08-09T09:39:10.003Z,32.89
2022-08-09T09:42:24.680Z,32.96
2022-08-09T09:45:29.539Z,33.38
2022-08-09T09:48:35.135Z,33.06
2022-08-09T09:51:40.259Z,33.30
2022-08-09T09:54:55.673Z,32.33
2022-08-09T09:58:15.534Z,33.45
2022-08-09T10:01:31.373Z,35.28
2022-08-09T10:04:42.295Z,33.47
2022-08-09T10:08:10.919Z,33.78
2022-08-09T10:11:54.298Z,33.50
2022-08-09T10:14:48.213Z,33.71
2022-08-09T10:17:56.242Z,34.71
2022-08-09T10:21:09.839Z,32.23
2022-08-09T10:24:16.109Z,34.51
2022-08-09T10:27:34.789Z,35.43
2022-08-09T10:34:18.925Z,35.09
2022-08-09T10:37:28.409Z,35.09
2022-08-09T10:40:41.116Z,37.10
2022-08-09T10:44:00.000Z,35.83
2022-08-09T10:48:12.703Z,35.77
2022-08-09T10:51:09.666Z,37.96
2022-08-09T10:54:13.839Z,36.09
2022-08-09T10:57:17.035Z,34.68
2022-08-09T11:00:28.839Z,37.10
2022-08-09T11:03:50.098Z,36.07
2022-08-09T11:07:03.724Z,33.27
2022-08-09T11:10:07.630Z,33.01
2022-08-09T11:13:49.093Z,31.84
2022-08-09T11:16:42.962Z,32.86
2022-08-09T11:20:20.495Z,33.87
2022-08-09T11:23:29.920Z,33.53
2022-08-09T11:26:40.824Z,35.13
2022-08-09T11:30:04.721Z,36.50
2022-08-09T11:33:19.181Z,36.56
2022-08-09T11:36:35.575Z,33.98
2022-08-09T11:40:06.385Z,36.20
2022-08-09T11:43:14.548Z,38.07
2022-08-09T11:46:18.647Z,36.34
2022-08-09T11:50:56.530Z,35.91
2022-08-09T11:53:58.363Z,40.37
2022-08-09T11:56:48.501Z,37.48
2022-08-09T11:59:52.226Z,37.59
2022-08-09T12:02:57.751Z,35.28
2022-08-09T12:06:08.671Z,34.11
2022-08-09T12:09:17.567Z,33.59
2022-08-09T12:12:29.204Z,33.19
2022-08-09T12:15:50.374Z,33.17
2022-08-09T12:18:55.637Z,31.84
2022-08-09T12:22:04.159Z,31.88
2022-08-09T12:25:15.586Z,30.92
2022-08-09T12:29:11.995Z,31.75
2022-08-09T12:32:02.198Z,31.13
2022-08-09T12:35:11.037Z,33.78
2022-08-09T12:38:29.810Z,32.41
2022-08-09T12:41:40.972Z,32.23
2022-08-09T12:44:52.464Z,32.57
2022-08-09T12:47:57.483Z,30.63
2022-08-09T12:51:04.028Z,31.13
2022-08-09T12:54:07.703Z,31.07
2022-08-09T12:57:10.815Z,32.63
2022-08-09T13:00:34.434Z,35.80
2022-08-09T13:03:53.607Z,36.01
2022-08-09T13:07:19.628Z,32.27
2022-08-09T13:10:23.472Z,31.47
2022-08-09T13:14:11.932Z,31.13
2022-08-09T13:17:08.493Z,30.29
2022-08-09T13:20:18.674Z,29.88
2022-08-09T13:24:16.340Z,29.42
2022-08-09T13:27:06.014Z,29.34
2022-08-09T13:30:51.255Z,29.31
2022-08-09T13:33:53.775Z,29.08
2022-08-09T13:36:59.328Z,29.52
2022-08-09T13:41:50.597Z,29.84
2022-08-09T13:43:35.957Z,29.73
2022-08-09T13:47:17.762Z,29.58
2022-08-09T13:50:12.667Z,29.76
2022-08-09T13:53:21.060Z,30.17
2022-08-09T13:56:42.706Z,29.97
2022-08-09T13:59:52.986Z,30.50
2022-08-09T14:03:03.061Z,30.90
2022-08-09T14:06:26.443Z,30.58
2022-08-09T14:09:30.337Z,30.12
2022-08-09T14:12:37.903Z,29.70
2022-08-09T14:16:09.105Z,29.86
2022-08-09T14:19:07.090Z,29.78
2022-08-09T14:22:10.158Z,29.70
2022-08-09T14:25:13.128Z,29.79
2022-08-09T14:28:15.784Z,29.12
2022-08-09T14:31:23.764Z,29.63
2022-08-09T14:34:46.273Z,30.24
2022-08-09T14:38:03.009Z,31.02
2022-08-09T14:41:34.630Z,31.89
2022-08-09T14:44:32.621Z,31.47
2022-08-09T14:47:57.508Z,30.84
2022-08-09T14:51:02.485Z,30.87
2022-08-09T14:54:09.547Z,30.57
2022-08-09T14:57:12.457Z,30.63
2022-08-09T15:00:15.196Z,30.24
2022-08-09T15:03:20.013Z,30.94
2022-08-09T15:06:23.104Z,31.49
2022-08-09T15:10:04.538Z,31.00
2022-08-09T15:12:54.124Z,31.01
2022-08-09T15:15:57.195Z,30.03
2022-08-09T15:19:02.469Z,29.68
2022-08-09T15:22:18.749Z,29.46
2022-08-09T15:25:33.552Z,29.77
2022-08-09T15:28:44.252Z,29.66
2022-08-09T15:31:57.938Z,29.91
2022-08-09T15:35:01.053Z,29.66
2022-08-09T15:38:11.672Z,29.82
2022-08-09T15:41:22.297Z,29.42
2022-08-09T15:44:25.065Z,29.27
2022-08-09T15:47:47.086Z,28.98
2022-08-09T15:50:50.733Z,28.97
2022-08-09T15:54:04.806Z,29.07
2022-08-09T15:57:10.788Z,29.06
2022-08-09T16:00:25.868Z,28.70
2022-08-09T16:03:38.776Z,28.85
2022-08-09T16:06:44.739Z,28.63
2022-08-09T16:10:04.267Z,28.95
2022-08-09T16:13:21.207Z,29.21
2022-08-09T16:16:31.706Z,28.97
2022-08-09T16:19:36.540Z,28.76
2022-08-09T16:22:42.353Z,28.94
2022-08-09T16:25:51.892Z,28.97
2022-08-09T16:29:11.331Z,29.04
2022-08-09T16:32:33.213Z,29.52
2022-08-09T16:35:56.150Z,29.32
2022-08-09T16:39:01.756Z,30.14
2022-08-09T16:42:07.259Z,29.74
2022-08-09T16:45:11.146Z,28.94
2022-08-09T16:48:41.610Z,28.23
2022-08-09T16:51:36.727Z,28.15
2022-08-09T16:54:42.080Z,27.91
2022-08-09T16:58:08.875Z,27.75
2022-08-09T17:01:08.353Z,27.72
2022-08-09T17:04:28.055Z,27.56
2022-08-09T17:08:47.088Z,27.48
2022-08-09T17:10:54.968Z,27.46
2022-08-09T17:14:01.294Z,27.39
2022-08-09T17:17:12.770Z,27.35
2022-08-09T17:20:37.441Z,27.27
2022-08-09T17:24:28.071Z,27.25
2022-08-09T17:27:06.665Z,27.25
2022-08-09T17:30:19.810Z,27.16
2022-08-09T17:33:23.589Z,27.09
2022-08-09T17:36:26.371Z,27.06
2022-08-09T17:39:48.306Z,27.06
2022-08-09T17:42:55.654Z,27.07
2022-08-09T17:46:06.931Z,27.01
2022-08-09T17:49:10.290Z,26.98
2022-08-09T17:52:20.670Z,26.94
2022-08-09T17:55:25.383Z,26.93
2022-08-09T17:58:48.435Z,26.86
2022-08-09T18:02:06.401Z,26.74
2022-08-09T18:05:14.192Z,26.67
2022-08-09T18:08:16.727Z,26.61
2022-08-09T18:11:20.741Z,26.60
2022-08-09T18:14:27.024Z,26.54
2022-08-09T18:18:02.601Z,26.46
2022-08-09T18:21:10.466Z,26.38
2022-08-09T18:24:16.879Z,26.31
2022-08-09T18:28:02.132Z,26.24
2022-08-09T18:30:49.448Z,26.20
2022-08-09T18:33:53.531Z,26.21
2022-08-09T18:36:56.948Z,26.20
2022-08-09T18:40:00.419Z,26.19
2022-08-09T18:43:03.801Z,26.42
2022-08-09T18:46:46.544Z,26.47
2022-08-09T18:49:31.923Z,26.38
2022-08-09T18:52:44.980Z,26.27
2022-08-09T18:56:05.021Z,26.21
2022-08-09T18:59:08.309Z,26.01
2022-08-09T19:02:12.054Z,25.87
2022-08-09T19:05:20.673Z,25.68
2022-08-09T19:08:41.266Z,25.53
2022-08-09T19:11:57.956Z,25.40
2022-08-09T19:15:00.911Z,25.38
2022-08-09T19:18:06.440Z,25.31
2022-08-09T19:21:21.634Z,25.20
2022-08-09T19:25:11.328Z,25.20
2022-08-09T19:28:06.568Z,25.03
2022-08-09T19:31:09.128Z,25.03
2022-08-09T19:34:21.798Z,24.92
2022-08-09T19:37:26.177Z,24.85
2022-08-09T19:40:33.225Z,24.72
2022-08-09T19:44:01.009Z,24.66
2022-08-09T19:47:00.195Z,24.57
2022-08-09T19:50:08.929Z,24.50
2022-08-09T19:53:26.447Z,24.47
2022-08-09T19:56:29.625Z,24.46
2022-08-09T19:59:58.270Z,24.46
2022-08-09T20:04:07.437Z,24.39
2022-08-09T20:06:31.253Z,24.35
2022-08-09T20:09:44.958Z,24.25
2022-08-09T20:12:49.105Z,24.19
2022-08-09T20:16:34.502Z,24.15
2022-08-09T20:19:42.420Z,23.94
2022-08-09T20:22:44.735Z,23.85
2022-08-09T20:25:52.539Z,23.79
2022-08-09T20:28:55.805Z,23.67
2022-08-09T20:32:30.891Z,23.62
2022-08-09T20:35:21.879Z,23.59
2022-08-09T20:38:34.003Z,23.56
2022-08-09T20:41:49.121Z,23.52
2022-08-09T20:45:04.518Z,23.47
2022-08-09T20:48:20.855Z,23.40
2022-08-09T20:51:25.056Z,23.38
2022-08-09T20:54:27.859Z,23.30
2022-08-09T20:57:32.521Z,23.35
2022-08-09T21:00:36.176Z,23.35
2022-08-09T21:04:07.906Z,23.33
2022-08-09T21:07:13.758Z,23.38
2022-08-09T21:10:17.739Z,23.32
2022-08-09T21:13:21.359Z,23.30
2022-08-09T21:16:28.256Z,23.31
2022-08-09T21:20:05.069Z,23.33
2022-08-09T21:22:56.016Z,23.27
2022-08-09T21:26:00.269Z,23.24
2022-08-09T21:29:12.035Z,23.25
2022-08-09T21:32:18.769Z,23.22
2022-08-09T21:35:22.051Z,23.19
2022-08-09T21:38:31.069Z,23.10
2022-08-09T21:42:05.479Z,23.09
2022-08-09T21:44:58.024Z,23.01
2022-08-09T21:48:00.849Z,22.95
2022-08-09T21:51:03.434Z,22.90
2022-08-09T21:54:06.295Z,22.88
2022-08-09T21:57:36.942Z,22.86
2022-08-09T22:00:35.902Z,22.84
2022-08-09T22:03:58.948Z,22.86
2022-08-09T22:07:02.086Z,22.83
2022-08-09T22:10:10.784Z,22.78
2022-08-09T22:13:13.857Z,22.76
2022-08-09T22:16:21.326Z,22.72
2022-08-09T22:19:59.103Z,22.68
2022-08-09T22:22:49.393Z,22.64
2022-08-09T22:26:07.033Z,22.60
2022-08-09T22:29:12.554Z,22.56
2022-08-09T22:32:29.688Z,22.52
2022-08-09T22:36:01.924Z,22.50
2022-08-09T22:38:56.886Z,22.47
2022-08-09T22:42:04.094Z,22.41
2022-08-09T22:48:10.777Z,22.33
2022-08-09T22:48:50.280Z,22.22
2022-08-09T22:51:56.980Z,22.10
2022-08-09T22:55:00.316Z,22.04
2022-08-09T22:58:04.965Z,21.94
2022-08-09T23:01:08.231Z,21.86
2022-08-09T23:04:10.755Z,21.71
2022-08-09T23:08:22.073Z,21.54
2022-08-09T23:10:54.615Z,21.47
2022-08-09T23:13:58.737Z,21.38
2022-08-09T23:17:01.279Z,21.32
2022-08-09T23:20:07.832Z,21.34
2022-08-09T23:23:10.896Z,21.31
2022-08-09T23:26:13.680Z,21.23
2022-08-09T23:29:17.741Z,21.18
2022-08-09T23:32:20.564Z,21.19
2022-08-09T23:35:23.595Z,21.20
2022-08-09T23:38:26.432Z,21.24
2022-08-09T23:41:29.748Z,21.22
2022-08-09T23:44:32.716Z,21.21
2022-08-09T23:47:35.203Z,21.19
2022-08-09T23:50:38.122Z,21.04
2022-08-09T23:53:40.663Z,20.97
2022-08-09T23:56:53.920Z,20.94
